Time;durP1;ratioP1;P1;durP2;ratioP2;P2;SDS_P1;SDS_P2;PMS_P1;PMS_P2;Temp;Humidity;BMP_temperature;BMP_pressure;BME280_temperature;BME280_humidity;BME280_pressure;Samples;Min_cycle;Max_cycle;Signal;HPM_P1;HPM_P2
2021/01/06 00:01:30;;;;;;;23.13;18.07;;;6.70;99.90;;;;;;5091512;27;20035;-61
2021/01/06 00:03:56;;;;;;;22.80;19.30;;;6.60;99.90;;;;;;5092654;28;20035;-61
2021/01/06 00:06:26;;;;;;;23.13;17.57;;;6.60;99.90;;;;;;5093667;28;20075;-62
2021/01/06 00:08:52;;;;;;;23.73;17.83;;;6.60;99.90;;;;;;5097529;28;20031;-62
2021/01/06 00:11:18;;;;;;;23.70;17.57;;;6.60;99.90;;;;;;5084802;28;20055;-62
2021/01/06 00:13:47;;;;;;;24.00;18.53;;;6.50;99.90;;;;;;5099100;28;20043;-62
2021/01/06 00:16:13;;;;;;;25.93;18.77;;;6.50;99.90;;;;;;5098481;28;20040;-62
2021/01/06 00:18:39;;;;;;;25.53;18.07;;;6.60;99.90;;;;;;5095755;28;20035;-62
2021/01/06 00:21:05;;;;;;;25.10;18.63;;;6.60;99.90;;;;;;5100096;28;20123;-62
2021/01/06 00:23:30;;;;;;;25.20;17.90;;;6.50;99.90;;;;;;5100064;28;20182;-62
2021/01/06 00:25:56;;;;;;;26.50;18.80;;;6.50;99.90;;;;;;5098036;27;20056;-62
2021/01/06 00:28:22;;;;;;;30.97;20.23;;;6.60;99.90;;;;;;5098054;27;20039;-62
2021/01/06 00:30:50;;;;;;;26.43;19.23;;;6.60;99.90;;;;;;5101974;28;20052;-62
2021/01/06 00:33:19;;;;;;;23.43;17.73;;;6.50;99.90;;;;;;5097747;27;20390;-62
2021/01/06 00:35:56;;;;;;;23.93;17.67;;;6.60;99.90;;;;;;5095266;28;20470;-62
2021/01/06 00:38:22;;;;;;;23.30;17.77;;;6.60;99.90;;;;;;5092787;28;20047;-62
2021/01/06 00:40:48;;;;;;;23.70;18.37;;;6.50;99.90;;;;;;5102076;28;20481;-62
2021/01/06 00:43:16;;;;;;;24.70;18.27;;;6.60;99.90;;;;;;5097929;28;20051;-62
2021/01/06 00:45:42;;;;;;;25.70;17.73;;;6.50;99.90;;;;;;5100402;28;20400;-62
2021/01/06 00:48:08;;;;;;;24.37;17.47;;;6.50;99.90;;;;;;5092919;27;20034;-62
2021/01/06 00:50:35;;;;;;;27.97;19.23;;;6.50;99.90;;;;;;5097518;28;20584;-62
2021/01/06 00:53:11;;;;;;;25.53;17.50;;;6.60;99.90;;;;;;5092832;28;20074;-62
2021/01/06 00:55:37;;;;;;;23.97;17.63;;;6.60;99.90;;;;;;5096922;28;20043;-62
2021/01/06 00:58:02;;;;;;;27.63;18.97;;;6.60;99.90;;;;;;5093196;28;20070;-62
2021/01/06 01:00:30;;;;;;;25.20;18.63;;;6.50;99.90;;;;;;5092118;28;20401;-61
2021/01/06 01:02:55;;;;;;;26.30;18.87;;;6.60;99.90;;;;;;5095157;28;20478;-61
2021/01/06 01:05:24;;;;;;;30.63;19.47;;;6.50;99.90;;;;;;5093487;28;20036;-63
2021/01/06 01:07:50;;;;;;;26.50;19.57;;;6.60;99.90;;;;;;5096888;28;20063;-63
2021/01/06 01:10:31;;;;;;;27.60;20.07;;;6.40;99.90;;;;;;5090450;28;20044;-62
2021/01/06 01:12:57;;;;;;;28.87;20.23;;;6.50;99.90;;;;;;5098431;28;20048;-61
2021/01/06 01:15:26;;;;;;;27.80;19.97;;;6.50;99.90;;;;;;5098798;28;20116;-62
2021/01/06 01:17:51;;;;;;;24.67;18.80;;;6.50;99.90;;;;;;5098433;28;20173;-62
2021/01/06 01:20:18;;;;;;;25.73;18.83;;;6.50;99.90;;;;;;5089296;28;20032;-62
2021/01/06 01:22:45;;;;;;;24.03;17.50;;;6.50;99.90;;;;;;5101643;28;20048;-62
2021/01/06 01:25:18;;;;;;;26.00;18.60;;;6.40;99.90;;;;;;5096076;28;20040;-62
2021/01/06 01:31:05;;;;;;;21.57;16.33;;;6.40;99.90;;;;;;5032139;28;20105;-62
2021/01/06 01:33:31;;;;;;;21.33;16.70;;;6.50;99.90;;;;;;5082567;28;20040;-62
2021/01/06 01:36:00;;;;;;;22.03;16.77;;;6.50;99.90;;;;;;5099309;28;20071;-61
2021/01/06 01:38:28;;;;;;;20.27;15.53;;;6.50;99.90;;;;;;5105553;28;20058;-61
2021/01/06 01:41:01;;;;;;;23.20;16.27;;;6.50;99.90;;;;;;5097817;27;20044;-61
2021/01/06 01:43:28;;;;;;;20.70;15.70;;;6.50;99.90;;;;;;5099556;28;20110;-61
2021/01/06 01:45:54;;;;;;;18.90;14.23;;;6.50;99.90;;;;;;5085749;28;20131;-61
2021/01/06 01:48:31;;;;;;;18.93;14.60;;;6.40;99.90;;;;;;5101619;28;20110;-62
2021/01/06 01:51:01;;;;;;;20.10;15.30;;;6.50;99.90;;;;;;5094799;27;20048;-61
2021/01/06 01:53:36;;;;;;;19.77;15.53;;;6.50;99.90;;;;;;5100566;27;20119;-61
2021/01/06 01:56:05;;;;;;;16.37;13.13;;;6.50;99.90;;;;;;5099159;28;20115;-62
2021/01/06 01:58:33;;;;;;;20.17;15.13;;;6.50;99.90;;;;;;5097575;27;20531;-61
2021/01/06 02:01:00;;;;;;;18.10;13.53;;;6.40;99.90;;;;;;5101559;28;20111;-62
2021/01/06 02:03:33;;;;;;;18.37;14.23;;;6.40;99.90;;;;;;5101339;28;20028;-62
2021/01/06 02:06:06;;;;;;;16.80;14.10;;;6.30;99.90;;;;;;5095906;28;20481;-62
2021/01/06 02:08:53;;;;;;;18.93;14.27;;;6.40;99.90;;;;;;5099037;27;20075;-61
2021/01/06 02:11:24;;;;;;;18.53;14.20;;;6.30;99.90;;;;;;5093278;28;20500;-62
2021/01/06 02:13:56;;;;;;;20.73;15.57;;;6.40;99.90;;;;;;5094503;28;20090;-61
2021/01/06 02:19:48;;;;;;;20.30;14.77;;;6.60;99.90;;;;;;5033086;28;20409;-62
2021/01/06 02:22:19;;;;;;;20.20;14.77;;;6.50;99.90;;;;;;5082120;28;20032;-62
2021/01/06 02:24:47;;;;;;;18.80;14.03;;;6.50;99.90;;;;;;5082723;28;20052;-61
2021/01/06 02:27:13;;;;;;;22.20;15.90;;;6.50;99.90;;;;;;5081490;28;20123;-62
2021/01/06 02:29:39;;;;;;;18.63;13.77;;;6.50;99.90;;;;;;5069200;28;20065;-61
2021/01/06 02:32:07;;;;;;;16.90;13.97;;;6.50;99.90;;;;;;5081914;28;20520;-62
2021/01/06 02:34:35;;;;;;;19.17;13.57;;;6.50;99.90;;;;;;5085398;28;20040;-62
2021/01/06 02:37:01;;;;;;;18.63;14.03;;;6.50;99.90;;;;;;5083068;28;20070;-61
2021/01/06 02:39:27;;;;;;;19.50;14.77;;;6.50;99.90;;;;;;5083140;28;20044;-61
2021/01/06 02:41:53;;;;;;;18.17;13.83;;;6.50;99.90;;;;;;5086207;28;20052;-62
2021/01/06 02:44:19;;;;;;;16.07;12.63;;;6.60;99.90;;;;;;5082062;28;20036;-62
2021/01/06 02:46:52;;;;;;;13.33;10.43;;;6.50;99.90;;;;;;5083163;28;20390;-61
2021/01/06 02:49:19;;;;;;;13.27;10.57;;;6.50;99.90;;;;;;5080134;28;20035;-62
2021/01/06 02:52:10;;;;;;;13.20;10.63;;;6.50;99.90;;;;;;5094564;27;20560;-62
2021/01/06 02:54:39;;;;;;;10.70;8.83;;;6.50;99.90;;;;;;5065403;27;20028;-63
2021/01/06 02:57:07;;;;;;;20.37;10.90;;;6.40;99.90;;;;;;5099608;28;20108;-62
2021/01/06 02:59:43;;;;;;;13.77;11.20;;;6.40;99.90;;;;;;5082610;28;20115;-61
2021/01/06 03:02:10;;;;;;;14.53;11.10;;;6.40;99.90;;;;;;5098987;27;20039;-62
2021/01/06 03:04:41;;;;;;;15.80;12.53;;;6.30;99.90;;;;;;5080920;28;20054;-61
2021/01/06 03:07:10;;;;;;;16.40;11.77;;;6.30;99.90;;;;;;5095664;28;20077;-61
2021/01/06 03:09:39;;;;;;;15.03;11.17;;;6.30;99.90;;;;;;5095531;27;20032;-62
2021/01/06 03:12:27;;;;;;;21.40;12.97;;;6.20;99.90;;;;;;5102066;27;20047;-62
2021/01/06 03:14:53;;;;;;;14.80;11.80;;;6.20;99.90;;;;;;5086363;28;20040;-61
2021/01/06 03:17:19;;;;;;;17.03;12.20;;;6.10;99.90;;;;;;5095545;28;20035;-61
2021/01/06 03:19:49;;;;;;;17.03;12.57;;;6.20;99.90;;;;;;5096338;28;20109;-61
2021/01/06 03:22:19;;;;;;;15.77;11.53;;;6.00;99.90;;;;;;5096518;28;20040;-62
2021/01/06 03:24:50;;;;;;;15.03;11.03;;;6.00;99.90;;;;;;5093530;27;20142;-62
2021/01/06 03:27:18;;;;;;;22.23;13.07;;;5.90;99.90;;;;;;5096995;28;20042;-61
2021/01/06 03:29:45;;;;;;;10.97;9.40;;;5.90;99.90;;;;;;5097127;27;20085;-62
2021/01/06 03:32:36;;;;;;;14.20;10.20;;;5.80;99.90;;;;;;5093249;28;20179;-61
2021/01/06 03:35:13;;;;;;;9.60;7.73;;;5.80;99.90;;;;;;5046198;28;20035;-62
2021/01/06 03:37:47;;;;;;;9.80;7.50;;;5.70;99.90;;;;;;5101894;28;20406;-62
2021/01/06 03:40:23;;;;;;;13.10;9.57;;;5.60;99.90;;;;;;5096186;27;20853;-61
2021/01/06 03:42:48;;;;;;;10.70;8.20;;;5.70;99.90;;;;;;5102549;28;20096;-61
2021/01/06 03:45:29;;;;;;;9.97;7.33;;;5.70;99.90;;;;;;5094085;28;20052;-62
2021/01/06 03:48:06;;;;;;;10.60;7.73;;;5.50;99.90;;;;;;5096375;27;20118;-61
2021/01/06 03:50:39;;;;;;;8.90;7.20;;;5.60;99.90;;;;;;5096977;28;20129;-61
2021/01/06 03:53:25;;;;;;;8.93;7.13;;;5.70;99.90;;;;;;5092924;27;20040;-61
2021/01/06 03:56:00;;;;;;;9.63;7.40;;;5.70;99.90;;;;;;5076604;27;20040;-61
2021/01/06 03:58:44;;;;;;;8.67;7.10;;;5.80;99.90;;;;;;5092601;28;20550;-61
2021/01/06 04:01:25;;;;;;;11.50;8.63;;;5.60;99.90;;;;;;5091478;28;20036;-61
2021/01/06 04:04:03;;;;;;;8.30;7.17;;;5.80;99.90;;;;;;5096935;28;20039;-62
2021/01/06 04:06:31;;;;;;;8.93;7.10;;;5.80;99.90;;;;;;5089467;28;20063;-61
2021/01/06 04:09:01;;;;;;;9.63;7.90;;;5.80;99.90;;;;;;5095988;28;20123;-62
2021/01/06 04:11:30;;;;;;;11.97;8.00;;;5.70;99.90;;;;;;5096375;28;20055;-61
2021/01/06 04:13:56;;;;;;;9.93;7.83;;;5.80;99.90;;;;;;5093817;28;20081;-60
2021/01/06 04:16:22;;;;;;;11.10;7.97;;;5.90;99.90;;;;;;5091617;28;20047;-61
2021/01/06 04:18:48;;;;;;;10.60;7.70;;;5.90;99.90;;;;;;5095207;28;20048;-62
2021/01/06 04:21:14;;;;;;;9.73;7.80;;;5.80;99.90;;;;;;5092697;28;20081;-61
2021/01/06 04:23:39;;;;;;;10.07;7.80;;;5.80;99.90;;;;;;5095750;28;20074;-61
2021/01/06 04:26:06;;;;;;;9.87;7.73;;;5.80;99.90;;;;;;5088418;28;20477;-62
2021/01/06 04:28:36;;;;;;;8.97;7.33;;;5.80;99.90;;;;;;5093374;27;20033;-62
2021/01/06 04:31:04;;;;;;;9.83;7.57;;;5.80;99.90;;;;;;5097217;28;20063;-61
2021/01/06 04:33:44;;;;;;;10.57;8.13;;;5.80;99.90;;;;;;5092718;28;20043;-61
2021/01/06 04:36:18;;;;;;;9.53;7.20;;;5.90;99.90;;;;;;5102311;28;20036;-62
2021/01/06 04:38:52;;;;;;;10.47;8.27;;;6.00;99.90;;;;;;5093937;28;20108;-61
2021/01/06 04:41:34;;;;;;;9.67;7.43;;;6.00;99.90;;;;;;5102642;28;20052;-61
2021/01/06 04:44:36;;;;;;;10.17;7.87;;;6.00;99.90;;;;;;5076432;27;20039;-61
2021/01/06 04:47:20;;;;;;;8.80;6.77;;;6.00;99.90;;;;;;5074318;27;20055;-62
2021/01/06 04:50:29;;;;;;;10.13;8.00;;;6.00;99.90;;;;;;5095185;28;20702;-61
2021/01/06 04:53:00;;;;;;;9.20;7.40;;;6.00;99.90;;;;;;5068297;28;20062;-62
2021/01/06 04:55:53;;;;;;;9.73;7.67;;;6.00;99.90;;;;;;5100253;28;20036;-60
2021/01/06 04:58:48;;;;;;;9.17;7.10;;;6.00;99.90;;;;;;5094726;27;20093;-61
2021/01/06 05:01:32;;;;;;;11.37;8.27;;;6.00;99.90;;;;;;5068489;28;20035;-61
2021/01/06 05:04:42;;;;;;;14.73;10.23;;;6.10;99.90;;;;;;5073957;28;20036;-61
2021/01/06 05:07:26;;;;;;;13.90;10.50;;;6.00;99.90;;;;;;5055191;28;20061;-62
2021/01/06 05:13:47;;;;;;;14.47;11.03;;;5.90;99.90;;;;;;5037746;28;20478;-62
2021/01/06 05:16:38;;;;;;;15.30;11.87;;;5.80;99.90;;;;;;5069077;28;20104;-61
2021/01/06 05:19:07;;;;;;;17.30;13.20;;;5.70;99.90;;;;;;5041683;28;20052;-61
2021/01/06 05:21:33;;;;;;;18.90;11.93;;;5.60;99.90;;;;;;5094385;28;20389;-61
2021/01/06 05:24:11;;;;;;;18.70;12.73;;;5.70;99.90;;;;;;5092128;28;20108;-61
2021/01/06 05:26:36;;;;;;;15.23;11.87;;;5.60;99.90;;;;;;5081062;28;20054;-61
2021/01/06 05:29:04;;;;;;;17.20;12.07;;;5.50;99.90;;;;;;5094168;28;20489;-62
2021/01/06 05:31:30;;;;;;;16.30;11.57;;;5.60;99.90;;;;;;5083423;28;20054;-62
2021/01/06 05:33:56;;;;;;;13.97;11.07;;;5.50;99.90;;;;;;5089365;28;20044;-60
2021/01/06 05:36:32;;;;;;;16.83;12.00;;;5.60;99.90;;;;;;5100060;28;20047;-61
2021/01/06 05:39:03;;;;;;;17.03;11.13;;;5.60;99.90;;;;;;5091499;28;20100;-62
2021/01/06 05:41:29;;;;;;;14.03;11.17;;;5.60;99.90;;;;;;5093761;28;20032;-61
2021/01/06 05:43:55;;;;;;;15.07;10.53;;;5.50;99.90;;;;;;5095109;28;20047;-59
2021/01/06 05:46:32;;;;;;;13.77;11.23;;;5.50;99.90;;;;;;5095558;28;20027;-61
2021/01/06 05:49:12;;;;;;;14.27;10.60;;;5.60;99.90;;;;;;5078225;28;20044;-61
2021/01/06 05:51:49;;;;;;;15.10;11.43;;;5.60;99.90;;;;;;5094243;28;20047;-61
2021/01/06 05:54:21;;;;;;;15.30;10.70;;;5.60;99.90;;;;;;5094107;28;20130;-62
2021/01/06 05:57:04;;;;;;;15.17;11.87;;;5.70;99.90;;;;;;5098225;28;20045;-61
2021/01/06 05:59:48;;;;;;;13.50;10.07;;;5.50;99.90;;;;;;5097832;28;20039;-63
2021/01/06 06:02:35;;;;;;;12.53;9.27;;;5.60;99.90;;;;;;5094701;28;20121;-61
2021/01/06 06:05:16;;;;;;;12.57;9.37;;;5.60;99.90;;;;;;5066205;28;20397;-62
2021/01/06 06:08:02;;;;;;;14.47;10.50;;;5.50;99.90;;;;;;5100368;28;20031;-62
2021/01/06 06:10:37;;;;;;;15.97;10.87;;;5.60;99.90;;;;;;5095411;27;20486;-61
2021/01/06 06:13:36;;;;;;;15.77;10.48;;;5.50;99.90;;;;;;5100442;28;20508;-61
2021/01/06 06:16:04;;;;;;;16.53;11.43;;;5.50;99.90;;;;;;5070543;28;20060;-61
2021/01/06 06:18:57;;;;;;;15.83;10.83;;;5.40;99.90;;;;;;5104560;28;20522;-61
2021/01/06 06:21:47;;;;;;;16.47;11.33;;;5.50;99.90;;;;;;5091765;28;20039;-61
2021/01/06 06:24:31;;;;;;;12.50;9.57;;;5.50;99.90;;;;;;5069891;28;20040;-61
2021/01/06 06:27:21;;;;;;;12.47;9.27;;;5.50;99.90;;;;;;5095396;28;20039;-60
2021/01/06 06:30:04;;;;;;;11.77;7.90;;;5.20;99.90;;;;;;5097856;27;20130;-62
2021/01/06 06:32:31;;;;;;;13.40;9.70;;;5.20;99.90;;;;;;5094708;27;20522;-61
2021/01/06 06:35:26;;;;;;;12.57;8.70;;;5.30;99.90;;;;;;5103834;27;20405;-61
2021/01/06 06:37:55;;;;;;;12.65;9.32;;;5.30;99.90;;;;;;5084408;28;20550;-62
2021/01/06 06:40:21;;;;;;;12.80;9.10;;;5.20;99.90;;;;;;5082595;28;20044;-61
2021/01/06 06:42:58;;;;;;;14.03;9.43;;;5.30;99.90;;;;;;5096660;27;20035;-61
2021/01/06 06:45:39;;;;;;;12.67;9.73;;;5.30;99.90;;;;;;5098977;28;20115;-61
2021/01/06 06:48:26;;;;;;;13.17;9.90;;;5.40;99.90;;;;;;5070687;27;20040;-61
2021/01/06 06:51:16;;;;;;;14.80;10.53;;;5.40;99.90;;;;;;5100933;27;20453;-61
2021/01/06 06:54:03;;;;;;;15.20;10.83;;;5.30;99.90;;;;;;5069201;27;20040;-61
2021/01/06 06:56:41;;;;;;;13.70;9.57;;;5.20;99.90;;;;;;5106759;27;20032;-60
2021/01/06 06:59:11;;;;;;;11.80;8.60;;;5.30;99.90;;;;;;5096412;28;20661;-61
2021/01/06 07:01:41;;;;;;;12.57;9.57;;;5.30;99.90;;;;;;5065553;28;20047;-61
2021/01/06 07:04:32;;;;;;;12.97;9.20;;;5.30;99.90;;;;;;5095713;27;20124;-62
2021/01/06 07:07:00;;;;;;;8.57;7.10;;;5.40;99.90;;;;;;5098795;28;20067;-61
2021/01/06 07:09:32;;;;;;;9.57;6.90;;;5.20;99.90;;;;;;5094550;28;20112;-60
2021/01/06 07:12:08;;;;;;;8.67;6.87;;;5.30;99.90;;;;;;5102202;27;20051;-61
2021/01/06 07:14:49;;;;;;;7.13;5.43;;;5.30;99.90;;;;;;5081793;28;20042;-61
2021/01/06 07:17:30;;;;;;;8.67;7.00;;;5.40;99.90;;;;;;5102901;28;20424;-61
2021/01/06 07:20:07;;;;;;;10.83;7.87;;;5.40;99.90;;;;;;5095247;27;20027;-61
2021/01/06 07:22:33;;;;;;;10.77;8.17;;;5.40;99.90;;;;;;5103312;28;20041;-62
2021/01/06 07:25:27;;;;;;;10.80;7.73;;;5.30;99.90;;;;;;5092899;28;20046;-61
2021/01/06 07:27:59;;;;;;;12.03;8.90;;;5.40;99.90;;;;;;5099152;28;20044;-60
2021/01/06 07:30:38;;;;;;;11.30;9.07;;;5.40;99.90;;;;;;5083374;28;20044;-60
2021/01/06 07:33:12;;;;;;;12.77;8.87;;;5.40;99.90;;;;;;5038792;28;20078;-61
2021/01/06 07:35:40;;;;;;;11.63;8.90;;;5.30;99.90;;;;;;5093491;28;20138;-60
2021/01/06 07:38:07;;;;;;;12.80;9.40;;;5.40;99.90;;;;;;5094705;28;20489;-61
2021/01/06 07:40:37;;;;;;;12.07;9.63;;;5.30;99.90;;;;;;5093456;28;20104;-60
2021/01/06 07:43:17;;;;;;;11.70;9.17;;;5.40;99.90;;;;;;5093750;28;20043;-60
2021/01/06 07:45:59;;;;;;;11.87;9.63;;;5.40;99.90;;;;;;5096578;27;20040;-60
2021/01/06 07:48:38;;;;;;;13.27;9.90;;;5.50;99.90;;;;;;5101920;28;20047;-61
2021/01/06 07:51:15;;;;;;;12.13;10.00;;;5.30;99.90;;;;;;5067464;28;20381;-61
2021/01/06 07:53:42;;;;;;;11.90;9.53;;;5.30;99.90;;;;;;5097498;28;20044;-61
2021/01/06 07:56:35;;;;;;;11.50;9.23;;;5.30;99.90;;;;;;5093969;28;20036;-60
2021/01/06 07:59:02;;;;;;;12.63;9.87;;;5.30;99.90;;;;;;5099411;28;20469;-60
2021/01/06 08:01:49;;;;;;;14.90;10.03;;;5.50;99.90;;;;;;5099263;28;20424;-59
2021/01/06 08:04:37;;;;;;;13.67;9.97;;;5.50;99.90;;;;;;5103684;27;20044;-60
2021/01/06 08:07:07;;;;;;;12.73;9.53;;;5.60;99.90;;;;;;5070348;28;20043;-60
2021/01/06 08:09:42;;;;;;;11.90;9.53;;;5.60;99.90;;;;;;5102390;28;20039;-60
2021/01/06 08:12:12;;;;;;;13.93;10.23;;;5.50;99.90;;;;;;5085015;28;20451;-61
2021/01/06 08:14:39;;;;;;;14.83;11.40;;;5.50;99.90;;;;;;5067133;28;20035;-60
2021/01/06 08:17:17;;;;;;;15.90;11.00;;;5.60;99.90;;;;;;5092579;28;20122;-61
2021/01/06 08:20:07;;;;;;;16.60;11.07;;;5.60;99.90;;;;;;5096336;28;20477;-60
2021/01/06 08:22:53;;;;;;;16.13;11.90;;;5.60;99.90;;;;;;5061952;28;20053;-60
2021/01/06 08:25:25;;;;;;;16.20;11.37;;;5.60;99.90;;;;;;5098201;27;20135;-61
2021/01/06 08:27:51;;;;;;;15.33;11.47;;;5.60;99.90;;;;;;5095661;28;20032;-60
2021/01/06 08:30:26;;;;;;;14.23;11.47;;;5.60;99.90;;;;;;5083256;28;20036;-61
2021/01/06 08:33:04;;;;;;;14.20;10.60;;;5.70;99.90;;;;;;5098022;28;20124;-61
2021/01/06 08:35:33;;;;;;;14.70;10.70;;;5.70;99.90;;;;;;5096145;27;20114;-60
2021/01/06 08:38:00;;;;;;;14.13;10.83;;;5.60;99.90;;;;;;5092697;28;20035;-60
2021/01/06 08:40:33;;;;;;;13.63;10.17;;;5.50;99.90;;;;;;5102064;28;20047;-61
2021/01/06 08:43:01;;;;;;;12.00;9.10;;;5.50;99.90;;;;;;5098909;28;20027;-61
2021/01/06 08:45:31;;;;;;;13.83;10.90;;;5.60;99.90;;;;;;5079477;28;20036;-61
2021/01/06 08:48:11;;;;;;;12.40;9.87;;;5.60;99.90;;;;;;5096881;28;20043;-61
2021/01/06 08:50:39;;;;;;;15.67;11.03;;;5.60;99.90;;;;;;5098138;28;20034;-61
2021/01/06 08:53:06;;;;;;;13.00;10.00;;;5.70;99.90;;;;;;5098140;28;20036;-62
2021/01/06 08:55:38;;;;;;;15.57;11.13;;;5.70;99.90;;;;;;5099165;28;20050;-61
2021/01/06 08:58:03;;;;;;;14.40;10.93;;;5.70;99.90;;;;;;5094016;28;20043;-61
2021/01/06 09:04:06;;;;;;;14.77;11.20;;;5.80;99.90;;;;;;5035385;28;20047;-62
2021/01/06 09:06:31;;;;;;;13.83;10.37;;;5.80;99.90;;;;;;5065038;28;20416;-58
2021/01/06 09:09:03;;;;;;;15.53;10.77;;;5.70;99.90;;;;;;5091275;28;20036;-61
2021/01/06 09:11:34;;;;;;;16.47;11.27;;;5.70;99.90;;;;;;5102482;28;20046;-61
2021/01/06 09:14:30;;;;;;;14.77;10.17;;;5.90;99.90;;;;;;5097472;28;20497;-61
2021/01/06 09:17:02;;;;;;;15.87;11.80;;;5.90;99.90;;;;;;5097381;28;20142;-61
2021/01/06 09:19:35;;;;;;;15.20;11.13;;;5.90;99.90;;;;;;5096127;28;20028;-61
2021/01/06 09:22:02;;;;;;;18.63;12.30;;;5.90;99.90;;;;;;5097174;28;20044;-61
2021/01/06 09:24:36;;;;;;;16.77;12.53;;;5.90;99.90;;;;;;5096399;28;20090;-61
2021/01/06 09:27:26;;;;;;;17.38;12.20;;;6.00;99.90;;;;;;5093558;28;20044;-62
2021/01/06 09:29:55;;;;;;;17.63;12.87;;;6.00;99.90;;;;;;5089213;28;20032;-61
2021/01/06 09:32:30;;;;;;;16.10;11.57;;;6.10;99.90;;;;;;5099006;28;20519;-62
2021/01/06 09:35:05;;;;;;;15.30;11.50;;;6.10;99.90;;;;;;5093402;28;20493;-60
2021/01/06 09:37:34;;;;;;;17.48;12.70;;;6.10;99.90;;;;;;5094189;28;20074;-61
2021/01/06 09:40:16;;;;;;;16.93;12.30;;;6.20;99.90;;;;;;5088617;28;20076;-61
2021/01/06 09:42:42;;;;;;;19.10;12.50;;;6.10;99.90;;;;;;5093524;28;20040;-61
2021/01/06 09:45:21;;;;;;;16.17;11.83;;;6.10;99.90;;;;;;5093881;28;20384;-62
2021/01/06 09:47:49;;;;;;;17.87;12.40;;;6.30;99.90;;;;;;5104208;28;20081;-61
2021/01/06 09:50:23;;;;;;;17.50;12.80;;;6.30;99.90;;;;;;5099270;28;20035;-62
2021/01/06 09:52:52;;;;;;;16.30;11.67;;;6.30;99.90;;;;;;5087302;27;20059;-62
2021/01/06 09:55:21;;;;;;;16.77;11.73;;;6.30;99.90;;;;;;5100179;27;20092;-61
2021/01/06 09:58:19;;;;;;;14.03;10.33;;;6.50;99.90;;;;;;5101019;27;20043;-62
2021/01/06 10:00:54;;;;;;;13.67;10.27;;;6.40;99.90;;;;;;5034535;28;20027;-61
2021/01/06 10:03:20;;;;;;;14.97;11.20;;;6.50;99.90;;;;;;5102304;28;20092;-61
2021/01/06 10:05:55;;;;;;;15.10;10.43;;;6.50;99.90;;;;;;5103203;27;20109;-61
2021/01/06 10:08:36;;;;;;;;;;;6.60;99.90;;;;;;5103593;28;20039;-61
2021/01/06 10:11:18;;;;;;;14.33;10.53;;;6.60;99.90;;;;;;5072385;28;19970;-62
2021/01/06 10:14:05;;;;;;;14.47;10.37;;;6.70;99.90;;;;;;5097860;27;20032;-62
2021/01/06 10:16:39;;;;;;;13.70;9.77;;;6.70;99.90;;;;;;5097238;28;20031;-62
2021/01/06 10:19:27;;;;;;;12.40;9.63;;;6.60;99.90;;;;;;5101053;27;20111;-62
2021/01/06 10:22:03;;;;;;;16.13;11.13;;;6.70;99.90;;;;;;5094944;28;20035;-62
2021/01/06 10:24:42;;;;;;;14.73;11.40;;;6.60;99.90;;;;;;5100240;28;20116;-61
2021/01/06 10:27:27;;;;;;;11.20;9.53;;;6.60;99.90;;;;;;5094186;27;20046;-62
2021/01/06 10:29:56;;;;;;;12.00;9.75;;;6.70;99.90;;;;;;5099831;27;20048;-62
2021/01/06 10:32:31;;;;;;;15.90;11.07;;;6.40;99.90;;;;;;5099147;27;20035;-61
2021/01/06 10:35:08;;;;;;;;;;;6.40;99.90;;;;;;5103503;28;20143;-61
2021/01/06 10:37:33;;;;;;;11.73;8.90;;;6.40;99.90;;;;;;5100768;27;19976;-61
2021/01/06 10:40:14;;;;;;;12.37;10.07;;;6.40;99.90;;;;;;5096787;28;20040;-61
2021/01/06 10:42:41;;;;;;;11.87;9.70;;;6.40;99.90;;;;;;5082101;28;20450;-61
2021/01/06 10:45:14;;;;;;;13.97;9.93;;;6.40;99.90;;;;;;5097510;28;20028;-62
2021/01/06 10:47:44;;;;;;;13.50;10.23;;;6.40;99.90;;;;;;5094342;28;20453;-61
2021/01/06 10:50:29;;;;;;;11.37;9.33;;;6.40;99.90;;;;;;5096587;28;20044;-61
2021/01/06 10:53:13;;;;;;;13.35;10.40;;;6.50;99.90;;;;;;5101920;27;20412;-62
2021/01/06 10:55:53;;;;;;;13.63;10.73;;;6.50;99.90;;;;;;5069440;28;20036;-61
2021/01/06 10:58:28;;;;;;;13.93;10.97;;;6.40;99.90;;;;;;5098188;28;20258;-61
2021/01/06 11:01:09;;;;;;;11.95;9.65;;;6.50;99.90;;;;;;5098010;28;20569;-62
2021/01/06 11:04:12;;;;;;;13.10;10.30;;;6.50;99.90;;;;;;5064273;28;20072;-62
2021/01/06 11:07:11;;;;;;;13.13;10.00;;;6.60;99.90;;;;;;5031683;27;20131;-62
2021/01/06 11:09:42;;;;;;;12.53;10.17;;;6.70;99.90;;;;;;5076477;27;20040;-61
2021/01/06 11:12:33;;;;;;;11.67;9.97;;;6.70;99.90;;;;;;5094597;27;20043;-61
2021/01/06 11:15:05;;;;;;;12.40;10.20;;;6.80;99.90;;;;;;5072081;27;20494;-61
2021/01/06 11:17:38;;;;;;;12.27;10.37;;;6.80;99.90;;;;;;5089708;28;20059;-61
2021/01/06 11:20:35;;;;;;;13.77;11.07;;;6.80;99.90;;;;;;5100390;28;20741;-62
2021/01/06 11:23:20;;;;;;;12.37;10.07;;;6.90;99.90;;;;;;5075794;28;20063;-61
2021/01/06 11:25:50;;;;;;;14.53;11.67;;;6.80;99.90;;;;;;5099943;27;20106;-63
2021/01/06 11:28:23;;;;;;;12.03;9.83;;;6.80;99.90;;;;;;5096876;28;20185;-62
2021/01/06 11:31:19;;;;;;;10.80;9.03;;;6.80;99.90;;;;;;5098535;27;20523;-62
2021/01/06 11:33:51;;;;;;;12.25;10.35;;;6.80;99.90;;;;;;5069555;27;20044;-59
2021/01/06 11:36:35;;;;;;;12.20;9.37;;;6.90;99.90;;;;;;5067268;28;20049;-62
2021/01/06 11:39:02;;;;;;;11.80;10.33;;;6.90;99.90;;;;;;5085716;28;20071;-61
2021/01/06 11:41:28;;;;;;;12.87;9.63;;;6.90;99.90;;;;;;5098914;28;20043;-61
2021/01/06 11:44:07;;;;;;;11.67;10.10;;;6.90;99.90;;;;;;5100852;28;20118;-62
2021/01/06 11:46:34;;;;;;;12.20;10.87;;;7.00;99.90;;;;;;5073899;27;20040;-62
2021/01/06 11:49:11;;;;;;;11.33;9.53;;;6.90;99.90;;;;;;5094380;27;20044;-61
2021/01/06 11:51:39;;;;;;;15.13;11.33;;;6.80;99.90;;;;;;5095531;28;20046;-62
2021/01/06 11:54:16;;;;;;;13.23;10.53;;;6.80;99.90;;;;;;5096444;28;20032;-61
2021/01/06 11:56:53;;;;;;;14.40;11.00;;;6.90;99.90;;;;;;5100199;28;21749;-62
2021/01/06 11:59:28;;;;;;;15.23;11.97;;;6.80;99.90;;;;;;5094140;28;20123;-61
2021/01/06 12:02:13;;;;;;;13.30;11.13;;;6.80;99.90;;;;;;5103075;28;20432;-62
2021/01/06 12:05:15;;;;;;;12.63;10.93;;;6.90;99.90;;;;;;5069000;28;20050;-62
2021/01/06 12:11:03;;;;;;;12.13;9.70;;;7.10;99.90;;;;;;5015941;28;20505;-62
2021/01/06 12:13:47;;;;;;;13.70;11.10;;;7.00;99.90;;;;;;5102338;28;20028;-61
2021/01/06 12:16:24;;;;;;;13.00;11.15;;;7.20;99.90;;;;;;5092196;28;20095;-61
2021/01/06 12:19:02;;;;;;;12.87;10.77;;;7.10;99.90;;;;;;5100851;28;20047;-62
2021/01/06 12:22:14;;;;;;;13.97;11.43;;;7.10;99.90;;;;;;5092990;28;20028;-61
2021/01/06 12:24:52;;;;;;;12.80;10.63;;;7.20;99.90;;;;;;5063921;28;20441;-62
2021/01/06 12:27:37;;;;;;;12.93;9.60;;;7.00;99.90;;;;;;5096878;27;20544;-62
2021/01/06 12:30:03;;;;;;;;;;;7.10;99.90;;;;;;5048856;28;20039;-61
2021/01/06 12:32:52;;;;;;;12.77;10.77;;;7.10;99.90;;;;;;5093222;28;19927;-61
2021/01/06 12:35:27;;;;;;;13.70;10.87;;;7.10;99.90;;;;;;5093324;28;20036;-62
2021/01/06 12:38:10;;;;;;;11.70;9.60;;;7.20;99.90;;;;;;5100966;28;20101;-62
2021/01/06 12:41:05;;;;;;;15.57;10.87;;;7.30;99.90;;;;;;5045169;28;20074;-62
2021/01/06 12:43:45;;;;;;;12.75;10.80;;;7.30;99.90;;;;;;5083370;28;20105;-61
2021/01/06 12:46:42;;;;;;;14.00;11.17;;;7.30;99.90;;;;;;5093715;28;20555;-62
2021/01/06 12:49:10;;;;;;;14.00;10.53;;;7.30;99.90;;;;;;5075512;28;20036;-62
2021/01/06 12:51:42;;;;;;;12.00;10.40;;;7.30;99.90;;;;;;5099904;27;20092;-61
2021/01/06 12:54:17;;;;;;;12.17;10.33;;;7.30;99.90;;;;;;5098463;28;20439;-62
2021/01/06 12:56:48;;;;;;;13.53;9.17;;;7.40;99.90;;;;;;5093012;28;20038;-60
2021/01/06 12:59:21;;;;;;;12.67;10.30;;;7.40;99.90;;;;;;5100359;28;20035;-59
2021/01/06 13:01:58;;;;;;;12.87;10.07;;;7.40;99.90;;;;;;5092465;27;20171;-60
2021/01/06 13:04:40;;;;;;;12.70;10.60;;;7.50;99.90;;;;;;5101670;27;20039;-60
2021/01/06 13:07:31;;;;;;;13.00;10.10;;;7.70;99.90;;;;;;5065255;28;20070;-60
2021/01/06 13:10:03;;;;;;;14.80;11.53;;;7.80;99.70;;;;;;5084614;28;20028;-61
2021/01/06 13:12:57;;;;;;;17.77;13.10;;;7.80;99.90;;;;;;5096716;28;20071;-59
2021/01/06 13:15:43;;;;;;;16.17;10.93;;;8.00;99.30;;;;;;5097129;28;20044;-61
2021/01/06 13:18:17;;;;;;;13.87;10.50;;;8.10;99.70;;;;;;5038453;28;20100;-61
2021/01/06 13:21:32;;;;;;;11.15;8.88;;;8.10;99.60;;;;;;5090310;28;20493;-48
2021/01/06 13:23:57;;;;;;;22.33;16.50;;;8.00;96.30;;;;;;5019141;28;20040;-60
2021/01/06 13:26:29;;;;;;;29.17;22.97;;;7.80;99.90;;;;;;5102756;28;20132;-61
2021/01/06 13:29:28;;;;;;;26.13;20.53;;;8.10;99.80;;;;;;5093997;28;20099;-62
2021/01/06 13:32:17;;;;;;;12.47;10.20;;;8.20;97.00;;;;;;5071101;28;20044;-62
2021/01/06 13:34:52;;;;;;;12.80;10.73;;;8.30;99.10;;;;;;5070150;28;20027;-62
2021/01/06 13:37:27;;;;;;;12.73;10.27;;;8.50;98.70;;;;;;5100863;28;20031;-62
2021/01/06 13:40:11;;;;;;;13.60;11.43;;;8.50;99.20;;;;;;5094071;28;20054;-62